sensor_id;sensor_type;location;lat;lon;timestamp;temperature;humidity
13074;DHT22;6603;47.066;15.396;2023-04-06T00:01:11;-1.00;1.00
13074;DHT22;6603;47.066;15.396;2023-04-06T00:03:37;-1.10;1.00
13074;DHT22;6603;47.066;15.396;2023-04-06T00:06:03;-1.00;1.00
13074;DHT22;6603;47.066;15.396;2023-04-06T00:08:30;-0.80;1.00
13074;DHT22;6603;47.066;15.396;2023-04-06T00:10:56;-1.00;1.00
13074;DHT22;6603;47.066;15.396;2023-04-06T00:13:22;-1.00;1.00
13074;DHT22;6603;47.066;15.396;2023-04-06T00:15:48;-0.70;1.00
13074;DHT22;6603;47.066;15.396;2023-04-06T00:18:14;-0.60;99.90
13074;DHT22;6603;47.066;15.396;2023-04-06T00:20:40;-0.90;1.00
13074;DHT22;6603;47.066;15.396;2023-04-06T00:23:06;-1.10;99.90
13074;DHT22;6603;47.066;15.396;2023-04-06T00:25:32;-1.00;1.00
13074;DHT22;6603;47.066;15.396;2023-04-06T00:27:58;-1.10;19.40
13074;DHT22;6603;47.066;15.396;2023-04-06T00:30:24;-0.90;99.90
13074;DHT22;6603;47.066;15.396;2023-04-06T00:32:50;-1.10;1.00
13074;DHT22;6603;47.066;15.396;2023-04-06T00:35:16;-1.00;1.00
13074;DHT22;6603;47.066;15.396;2023-04-06T00:37:42;-1.10;99.90
13074;DHT22;6603;47.066;15.396;2023-04-06T00:40:08;-1.10;1.00
13074;DHT22;6603;47.066;15.396;2023-04-06T00:42:35;-1.00;99.90
13074;DHT22;6603;47.066;15.396;2023-04-06T00:45:01;-1.10;1.00
13074;DHT22;6603;47.066;15.396;2023-04-06T00:47:28;-1.00;1.00
13074;DHT22;6603;47.066;15.396;2023-04-06T00:49:54;-1.50;1.00
13074;DHT22;6603;47.066;15.396;2023-04-06T00:52:21;-1.30;1.00
13074;DHT22;6603;47.066;15.396;2023-04-06T00:54:48;-1.50;99.90
13074;DHT22;6603;47.066;15.396;2023-04-06T00:57:14;-1.60;1.00
13074;DHT22;6603;47.066;15.396;2023-04-06T00:59:40;-1.70;1.00
13074;DHT22;6603;47.066;15.396;2023-04-06T01:02:07;-1.70;99.90
13074;DHT22;6603;47.066;15.396;2023-04-06T01:04:34;-1.80;1.00
13074;DHT22;6603;47.066;15.396;2023-04-06T01:07:00;-1.70;99.90
13074;DHT22;6603;47.066;15.396;2023-04-06T01:09:29;-1.80;1.00
13074;DHT22;6603;47.066;15.396;2023-04-06T01:11:57;-1.80;1.00
13074;DHT22;6603;47.066;15.396;2023-04-06T01:14:23;-1.80;99.90
13074;DHT22;6603;47.066;15.396;2023-04-06T01:16:50;-1.70;1.00
13074;DHT22;6603;47.066;15.396;2023-04-06T01:19:17;-1.40;1.00
13074;DHT22;6603;47.066;15.396;2023-04-06T01:21:42;-1.70;99.90
13074;DHT22;6603;47.066;15.396;2023-04-06T01:24:09;-1.70;1.00
13074;DHT22;6603;47.066;15.396;2023-04-06T01:26:36;-1.50;1.00
13074;DHT22;6603;47.066;15.396;2023-04-06T01:29:02;-1.40;99.90
13074;DHT22;6603;47.066;15.396;2023-04-06T01:31:29;-1.50;1.00
13074;DHT22;6603;47.066;15.396;2023-04-06T01:33:55;-1.50;99.90
13074;DHT22;6603;47.066;15.396;2023-04-06T01:36:21;-1.30;1.00
13074;DHT22;6603;47.066;15.396;2023-04-06T01:38:47;-1.30;99.90
13074;DHT22;6603;47.066;15.396;2023-04-06T01:41:13;-1.40;99.90
13074;DHT22;6603;47.066;15.396;2023-04-06T01:43:39;-1.30;1.00
13074;DHT22;6603;47.066;15.396;2023-04-06T01:46:05;-1.50;99.90
13074;DHT22;6603;47.066;15.396;2023-04-06T01:48:31;-1.70;1.00
13074;DHT22;6603;47.066;15.396;2023-04-06T01:50:57;-1.60;1.00
13074;DHT22;6603;47.066;15.396;2023-04-06T01:53:23;-1.70;96.10
13074;DHT22;6603;47.066;15.396;2023-04-06T01:55:49;-1.80;1.00
13074;DHT22;6603;47.066;15.396;2023-04-06T01:58:16;-1.60;1.00
13074;DHT22;6603;47.066;15.396;2023-04-06T02:00:42;-1.70;1.00
13074;DHT22;6603;47.066;15.396;2023-04-06T02:03:08;-1.70;99.90
13074;DHT22;6603;47.066;15.396;2023-04-06T02:05:35;-1.60;99.90
13074;DHT22;6603;47.066;15.396;2023-04-06T02:08:07;-1.80;99.90
13074;DHT22;6603;47.066;15.396;2023-04-06T02:10:34;-1.70;1.00
13074;DHT22;6603;47.066;15.396;2023-04-06T02:13:00;-1.80;1.00
13074;DHT22;6603;47.066;15.396;2023-04-06T02:15:27;-2.00;1.00
13074;DHT22;6603;47.066;15.396;2023-04-06T02:17:53;-1.80;1.00
13074;DHT22;6603;47.066;15.396;2023-04-06T02:20:19;-1.80;52.40
13074;DHT22;6603;47.066;15.396;2023-04-06T02:22:45;-1.60;1.00
13074;DHT22;6603;47.066;15.396;2023-04-06T02:25:11;-1.70;1.00
13074;DHT22;6603;47.066;15.396;2023-04-06T02:27:37;-1.70;99.90
13074;DHT22;6603;47.066;15.396;2023-04-06T02:30:04;-1.80;1.00
13074;DHT22;6603;47.066;15.396;2023-04-06T02:32:30;-1.90;99.90
13074;DHT22;6603;47.066;15.396;2023-04-06T02:34:56;-1.90;15.10
13074;DHT22;6603;47.066;15.396;2023-04-06T02:37:22;-1.80;1.00
13074;DHT22;6603;47.066;15.396;2023-04-06T02:39:50;-1.90;1.00
13074;DHT22;6603;47.066;15.396;2023-04-06T02:42:16;-2.10;99.90
13074;DHT22;6603;47.066;15.396;2023-04-06T02:44:43;-2.30;34.20
13074;DHT22;6603;47.066;15.396;2023-04-06T02:47:09;-2.00;1.00
13074;DHT22;6603;47.066;15.396;2023-04-06T02:49:36;-1.90;99.90
13074;DHT22;6603;47.066;15.396;2023-04-06T02:52:03;-1.80;99.90
13074;DHT22;6603;47.066;15.396;2023-04-06T02:54:29;-2.10;1.00
13074;DHT22;6603;47.066;15.396;2023-04-06T02:56:54;-2.00;1.00
13074;DHT22;6603;47.066;15.396;2023-04-06T02:59:20;-2.20;1.00
13074;DHT22;6603;47.066;15.396;2023-04-06T03:01:46;-2.10;1.00
13074;DHT22;6603;47.066;15.396;2023-04-06T03:04:12;-2.10;99.90
13074;DHT22;6603;47.066;15.396;2023-04-06T03:06:38;-1.90;99.90
13074;DHT22;6603;47.066;15.396;2023-04-06T03:09:05;-1.90;1.00
13074;DHT22;6603;47.066;15.396;2023-04-06T03:11:31;-1.90;1.00
13074;DHT22;6603;47.066;15.396;2023-04-06T03:13:58;-2.40;99.90
13074;DHT22;6603;47.066;15.396;2023-04-06T03:16:24;-2.20;1.00
13074;DHT22;6603;47.066;15.396;2023-04-06T03:18:50;-2.50;26.00
13074;DHT22;6603;47.066;15.396;2023-04-06T03:21:16;-2.10;1.00
13074;DHT22;6603;47.066;15.396;2023-04-06T03:23:43;-2.20;1.00
13074;DHT22;6603;47.066;15.396;2023-04-06T03:26:08;-2.20;1.00
13074;DHT22;6603;47.066;15.396;2023-04-06T03:28:35;-2.10;1.00
13074;DHT22;6603;47.066;15.396;2023-04-06T03:31:01;-2.10;99.90
13074;DHT22;6603;47.066;15.396;2023-04-06T03:33:27;-2.20;1.00
13074;DHT22;6603;47.066;15.396;2023-04-06T03:35:54;-2.40;1.00
13074;DHT22;6603;47.066;15.396;2023-04-06T03:40:48;-2.50;99.90
13074;DHT22;6603;47.066;15.396;2023-04-06T03:43:14;-2.40;92.30
13074;DHT22;6603;47.066;15.396;2023-04-06T03:45:40;-2.50;99.90
13074;DHT22;6603;47.066;15.396;2023-04-06T03:48:06;-2.50;74.40
13074;DHT22;6603;47.066;15.396;2023-04-06T03:50:32;-2.70;99.90
13074;DHT22;6603;47.066;15.396;2023-04-06T03:52:58;-2.50;1.00
13074;DHT22;6603;47.066;15.396;2023-04-06T03:55:24;-2.40;1.00
13074;DHT22;6603;47.066;15.396;2023-04-06T03:57:50;-2.70;1.00
13074;DHT22;6603;47.066;15.396;2023-04-06T04:00:16;-2.50;1.00
13074;DHT22;6603;47.066;15.396;2023-04-06T04:02:42;-2.40;1.00
13074;DHT22;6603;47.066;15.396;2023-04-06T04:05:08;-2.70;1.00
13074;DHT22;6603;47.066;15.396;2023-04-06T04:07:34;-2.70;1.00
13074;DHT22;6603;47.066;15.396;2023-04-06T04:10:00;-2.80;99.90
13074;DHT22;6603;47.066;15.396;2023-04-06T04:12:26;-2.70;1.00
13074;DHT22;6603;47.066;15.396;2023-04-06T04:14:52;-2.70;1.00
13074;DHT22;6603;47.066;15.396;2023-04-06T04:17:18;-2.70;1.00
13074;DHT22;6603;47.066;15.396;2023-04-06T05:12:13;-2.30;1.00
13074;DHT22;6603;47.066;15.396;2023-04-06T05:14:39;-2.30;99.90
13074;DHT22;6603;47.066;15.396;2023-04-06T05:17:05;-2.00;1.00
13074;DHT22;6603;47.066;15.396;2023-04-06T05:19:31;-2.00;99.90
13074;DHT22;6603;47.066;15.396;2023-04-06T05:21:57;-1.80;99.90
13074;DHT22;6603;47.066;15.396;2023-04-06T05:24:22;-1.80;1.00
13074;DHT22;6603;47.066;15.396;2023-04-06T05:26:49;-1.90;99.90
13074;DHT22;6603;47.066;15.396;2023-04-06T05:29:15;-2.00;1.00
13074;DHT22;6603;47.066;15.396;2023-04-06T05:31:42;-1.80;99.90
13074;DHT22;6603;47.066;15.396;2023-04-06T05:34:08;-1.80;99.90
13074;DHT22;6603;47.066;15.396;2023-04-06T05:36:35;-1.80;1.00
13074;DHT22;6603;47.066;15.396;2023-04-06T05:39:01;-1.80;1.00
13074;DHT22;6603;47.066;15.396;2023-04-06T05:41:26;-1.60;1.00
13074;DHT22;6603;47.066;15.396;2023-04-06T05:43:52;-1.20;99.90
13074;DHT22;6603;47.066;15.396;2023-04-06T05:46:18;-0.80;1.00
13074;DHT22;6603;47.066;15.396;2023-04-06T05:48:44;-0.70;1.00
13074;DHT22;6603;47.066;15.396;2023-04-06T05:51:10;-0.50;1.00
13074;DHT22;6603;47.066;15.396;2023-04-06T05:53:37;-0.20;1.00
13074;DHT22;6603;47.066;15.396;2023-04-06T05:56:03;-0.20;71.40
13074;DHT22;6603;47.066;15.396;2023-04-06T05:58:30;0.00;1.00
13074;DHT22;6603;47.066;15.396;2023-04-06T06:01:00;0.20;1.00
13074;DHT22;6603;47.066;15.396;2023-04-06T06:03:26;0.20;1.00
13074;DHT22;6603;47.066;15.396;2023-04-06T06:05:52;0.40;1.00
13074;DHT22;6603;47.066;15.396;2023-04-06T06:08:18;0.40;1.00
13074;DHT22;6603;47.066;15.396;2023-04-06T06:10:44;0.50;1.00
13074;DHT22;6603;47.066;15.396;2023-04-06T06:13:09;0.60;99.90
13074;DHT22;6603;47.066;15.396;2023-04-06T06:15:35;0.60;1.00
13074;DHT22;6603;47.066;15.396;2023-04-06T06:18:01;0.80;99.90
13074;DHT22;6603;47.066;15.396;2023-04-06T06:20:27;0.80;57.40
13074;DHT22;6603;47.066;15.396;2023-04-06T06:22:53;0.80;99.90
13074;DHT22;6603;47.066;15.396;2023-04-06T06:25:19;1.00;99.90
13074;DHT22;6603;47.066;15.396;2023-04-06T06:27:45;1.10;99.90
13074;DHT22;6603;47.066;15.396;2023-04-06T06:30:11;1.30;99.90
13074;DHT22;6603;47.066;15.396;2023-04-06T06:32:40;1.40;99.40
13074;DHT22;6603;47.066;15.396;2023-04-06T06:35:06;1.50;1.00
13074;DHT22;6603;47.066;15.396;2023-04-06T06:37:32;1.70;1.00
13074;DHT22;6603;47.066;15.396;2023-04-06T06:39:58;1.70;1.00
13074;DHT22;6603;47.066;15.396;2023-04-06T06:42:23;1.80;1.00
13074;DHT22;6603;47.066;15.396;2023-04-06T06:44:50;1.90;1.00
13074;DHT22;6603;47.066;15.396;2023-04-06T06:47:16;2.00;1.00
13074;DHT22;6603;47.066;15.396;2023-04-06T06:49:42;2.10;1.00
13074;DHT22;6603;47.066;15.396;2023-04-06T06:52:08;2.10;1.00
13074;DHT22;6603;47.066;15.396;2023-04-06T06:54:34;2.20;99.90
13074;DHT22;6603;47.066;15.396;2023-04-06T06:57:00;2.30;1.00
13074;DHT22;6603;47.066;15.396;2023-04-06T06:59:26;2.50;1.00
13074;DHT22;6603;47.066;15.396;2023-04-06T07:01:52;2.50;99.90
13074;DHT22;6603;47.066;15.396;2023-04-06T07:04:18;2.60;99.90
13074;DHT22;6603;47.066;15.396;2023-04-06T07:06:44;2.70;99.90
13074;DHT22;6603;47.066;15.396;2023-04-06T07:09:11;2.80;99.90
13074;DHT22;6603;47.066;15.396;2023-04-06T07:11:37;3.00;99.90
13074;DHT22;6603;47.066;15.396;2023-04-06T07:14:03;3.00;99.90
13074;DHT22;6603;47.066;15.396;2023-04-06T07:16:29;3.20;99.90
13074;DHT22;6603;47.066;15.396;2023-04-06T07:18:55;3.30;99.90
13074;DHT22;6603;47.066;15.396;2023-04-06T07:21:21;3.40;99.90
13074;DHT22;6603;47.066;15.396;2023-04-06T07:23:48;3.60;99.90
13074;DHT22;6603;47.066;15.396;2023-04-06T07:26:14;3.70;99.90
13074;DHT22;6603;47.066;15.396;2023-04-06T07:28:41;3.80;99.90
13074;DHT22;6603;47.066;15.396;2023-04-06T07:31:07;3.90;99.90
13074;DHT22;6603;47.066;15.396;2023-04-06T07:33:33;4.00;93.50
13074;DHT22;6603;47.066;15.396;2023-04-06T07:35:59;4.10;19.50
13074;DHT22;6603;47.066;15.396;2023-04-06T07:38:25;4.30;1.00
13074;DHT22;6603;47.066;15.396;2023-04-06T07:40:51;4.50;1.00
13074;DHT22;6603;47.066;15.396;2023-04-06T07:43:17;4.50;1.00
13074;DHT22;6603;47.066;15.396;2023-04-06T07:45:43;4.60;1.00
13074;DHT22;6603;47.066;15.396;2023-04-06T07:48:09;4.80;1.00
13074;DHT22;6603;47.066;15.396;2023-04-06T07:50:35;4.90;1.00
13074;DHT22;6603;47.066;15.396;2023-04-06T07:53:01;5.00;1.00
13074;DHT22;6603;47.066;15.396;2023-04-06T07:55:28;5.10;1.00
13074;DHT22;6603;47.066;15.396;2023-04-06T07:57:54;5.10;1.00
13074;DHT22;6603;47.066;15.396;2023-04-06T08:00:20;5.10;1.00
13074;DHT22;6603;47.066;15.396;2023-04-06T08:02:47;5.30;1.00
13074;DHT22;6603;47.066;15.396;2023-04-06T08:05:13;5.20;1.00
13074;DHT22;6603;47.066;15.396;2023-04-06T08:07:39;5.20;1.00
13074;DHT22;6603;47.066;15.396;2023-04-06T08:10:05;5.40;1.00
13074;DHT22;6603;47.066;15.396;2023-04-06T08:12:32;5.50;1.00
13074;DHT22;6603;47.066;15.396;2023-04-06T08:14:59;5.50;1.00
13074;DHT22;6603;47.066;15.396;2023-04-06T08:17:25;5.70;1.00
13074;DHT22;6603;47.066;15.396;2023-04-06T08:19:53;5.80;1.00
13074;DHT22;6603;47.066;15.396;2023-04-06T08:22:19;5.80;1.00
13074;DHT22;6603;47.066;15.396;2023-04-06T08:24:45;6.00;1.00
13074;DHT22;6603;47.066;15.396;2023-04-06T08:27:11;6.30;1.00
13074;DHT22;6603;47.066;15.396;2023-04-06T08:29:36;6.40;1.00
13074;DHT22;6603;47.066;15.396;2023-04-06T08:32:02;6.40;1.00
13074;DHT22;6603;47.066;15.396;2023-04-06T08:34:34;6.30;1.00
13074;DHT22;6603;47.066;15.396;2023-04-06T08:37:01;6.60;1.00
13074;DHT22;6603;47.066;15.396;2023-04-06T08:39:27;6.70;1.00
13074;DHT22;6603;47.066;15.396;2023-04-06T08:41:54;6.80;1.00
13074;DHT22;6603;47.066;15.396;2023-04-06T08:44:24;6.80;1.00
13074;DHT22;6603;47.066;15.396;2023-04-06T08:46:50;6.90;1.00
13074;DHT22;6603;47.066;15.396;2023-04-06T08:49:16;6.90;1.00
13074;DHT22;6603;47.066;15.396;2023-04-06T08:51:43;7.00;1.00
13074;DHT22;6603;47.066;15.396;2023-04-06T08:54:10;7.10;1.00
13074;DHT22;6603;47.066;15.396;2023-04-06T08:56:38;7.30;1.00
13074;DHT22;6603;47.066;15.396;2023-04-06T08:59:06;7.50;1.00
13074;DHT22;6603;47.066;15.396;2023-04-06T09:01:33;7.70;1.00
13074;DHT22;6603;47.066;15.396;2023-04-06T09:04:02;7.70;1.00
13074;DHT22;6603;47.066;15.396;2023-04-06T09:06:34;7.60;1.00
13074;DHT22;6603;47.066;15.396;2023-04-06T09:09:00;7.50;1.00
13074;DHT22;6603;47.066;15.396;2023-04-06T09:11:26;7.80;1.00
13074;DHT22;6603;47.066;15.396;2023-04-06T09:13:54;7.80;1.00
13074;DHT22;6603;47.066;15.396;2023-04-06T09:16:21;8.00;1.00
13074;DHT22;6603;47.066;15.396;2023-04-06T09:18:47;8.20;1.00
13074;DHT22;6603;47.066;15.396;2023-04-06T09:21:16;8.20;1.00
13074;DHT22;6603;47.066;15.396;2023-04-06T09:23:43;8.30;1.00
13074;DHT22;6603;47.066;15.396;2023-04-06T09:26:14;8.50;1.00
13074;DHT22;6603;47.066;15.396;2023-04-06T09:28:50;8.40;1.00
13074;DHT22;6603;47.066;15.396;2023-04-06T09:31:38;8.50;1.00
13074;DHT22;6603;47.066;15.396;2023-04-06T09:34:03;8.70;1.00
13074;DHT22;6603;47.066;15.396;2023-04-06T09:36:33;8.80;1.00
13074;DHT22;6603;47.066;15.396;2023-04-06T09:39:02;8.90;1.00
13074;DHT22;6603;47.066;15.396;2023-04-06T09:41:29;8.60;99.90
13074;DHT22;6603;47.066;15.396;2023-04-06T09:44:06;8.70;99.90
13074;DHT22;6603;47.066;15.396;2023-04-06T09:46:34;8.70;99.90
13074;DHT22;6603;47.066;15.396;2023-04-06T09:49:03;8.80;99.90
13074;DHT22;6603;47.066;15.396;2023-04-06T09:51:33;9.00;99.90
13074;DHT22;6603;47.066;15.396;2023-04-06T09:54:02;9.00;99.90
13074;DHT22;6603;47.066;15.396;2023-04-06T09:57:07;9.00;99.90
13074;DHT22;6603;47.066;15.396;2023-04-06T10:00:05;9.00;99.90
13074;DHT22;6603;47.066;15.396;2023-04-06T10:02:58;9.10;99.90
13074;DHT22;6603;47.066;15.396;2023-04-06T10:08:11;9.50;99.90
13074;DHT22;6603;47.066;15.396;2023-04-06T10:10:38;9.60;99.90
13074;DHT22;6603;47.066;15.396;2023-04-06T10:13:04;9.90;99.90
13074;DHT22;6603;47.066;15.396;2023-04-06T10:15:31;9.80;99.90
13074;DHT22;6603;47.066;15.396;2023-04-06T10:18:01;9.70;99.90
13074;DHT22;6603;47.066;15.396;2023-04-06T10:23:37;9.80;99.90
13074;DHT22;6603;47.066;15.396;2023-04-06T10:26:05;9.80;99.90
13074;DHT22;6603;47.066;15.396;2023-04-06T10:28:37;9.70;99.90
13074;DHT22;6603;47.066;15.396;2023-04-06T10:31:06;10.00;99.90
13074;DHT22;6603;47.066;15.396;2023-04-06T10:33:32;10.20;99.90
13074;DHT22;6603;47.066;15.396;2023-04-06T10:36:10;10.00;99.90
13074;DHT22;6603;47.066;15.396;2023-04-06T10:38:38;10.00;99.90
13074;DHT22;6603;47.066;15.396;2023-04-06T10:41:06;10.10;99.90
13074;DHT22;6603;47.066;15.396;2023-04-06T10:43:37;10.10;99.90
13074;DHT22;6603;47.066;15.396;2023-04-06T10:46:05;10.20;99.90
13074;DHT22;6603;47.066;15.396;2023-04-06T10:48:45;10.20;99.90
13074;DHT22;6603;47.066;15.396;2023-04-06T10:51:14;10.40;99.90
13074;DHT22;6603;47.066;15.396;2023-04-06T10:53:45;10.60;99.90
13074;DHT22;6603;47.066;15.396;2023-04-06T10:56:14;11.00;99.90
13074;DHT22;6603;47.066;15.396;2023-04-06T10:58:45;10.80;99.90
13074;DHT22;6603;47.066;15.396;2023-04-06T11:01:18;10.70;99.90
13074;DHT22;6603;47.066;15.396;2023-04-06T11:03:46;10.80;99.90
13074;DHT22;6603;47.066;15.396;2023-04-06T11:08:46;10.80;99.90
13074;DHT22;6603;47.066;15.396;2023-04-06T11:11:14;10.80;99.90
13074;DHT22;6603;47.066;15.396;2023-04-06T11:13:59;10.90;99.90
13074;DHT22;6603;47.066;15.396;2023-04-06T11:16:27;10.90;99.90
13074;DHT22;6603;47.066;15.396;2023-04-06T11:18:54;11.00;99.90
13074;DHT22;6603;47.066;15.396;2023-04-06T11:21:46;11.20;99.90
13074;DHT22;6603;47.066;15.396;2023-04-06T11:24:15;11.20;99.90
13074;DHT22;6603;47.066;15.396;2023-04-06T11:26:56;11.30;99.90
13074;DHT22;6603;47.066;15.396;2023-04-06T11:29:27;11.50;99.90
13074;DHT22;6603;47.066;15.396;2023-04-06T11:32:04;11.70;99.90
13074;DHT22;6603;47.066;15.396;2023-04-06T11:34:36;11.60;99.90
13074;DHT22;6603;47.066;15.396;2023-04-06T11:37:07;11.60;99.90
13074;DHT22;6603;47.066;15.396;2023-04-06T11:39:39;11.70;99.90
13074;DHT22;6603;47.066;15.396;2023-04-06T11:42:08;12.00;99.90
13074;DHT22;6603;47.066;15.396;2023-04-06T11:44:38;11.80;99.90
13074;DHT22;6603;47.066;15.396;2023-04-06T11:47:07;11.80;99.90
13074;DHT22;6603;47.066;15.396;2023-04-06T11:49:37;12.00;99.90
13074;DHT22;6603;47.066;15.396;2023-04-06T11:52:18;11.90;99.90
13074;DHT22;6603;47.066;15.396;2023-04-06T11:54:46;11.80;99.90
13074;DHT22;6603;47.066;15.396;2023-04-06T11:57:12;11.90;99.90
13074;DHT22;6603;47.066;15.396;2023-04-06T11:59:39;12.00;99.90
13074;DHT22;6603;47.066;15.396;2023-04-06T12:02:05;12.30;99.90
13074;DHT22;6603;47.066;15.396;2023-04-06T12:04:32;12.30;99.90
13074;DHT22;6603;47.066;15.396;2023-04-06T12:06:58;12.10;99.90
13074;DHT22;6603;47.066;15.396;2023-04-06T12:09:24;12.00;99.90
13074;DHT22;6603;47.066;15.396;2023-04-06T12:11:50;12.00;99.90
13074;DHT22;6603;47.066;15.396;2023-04-06T12:14:16;12.00;99.90
13074;DHT22;6603;47.066;15.396;2023-04-06T12:16:42;11.90;99.90
13074;DHT22;6603;47.066;15.396;2023-04-06T12:19:08;12.00;99.90
13074;DHT22;6603;47.066;15.396;2023-04-06T12:21:35;12.20;99.90
13074;DHT22;6603;47.066;15.396;2023-04-06T12:24:03;12.40;99.90
13074;DHT22;6603;47.066;15.396;2023-04-06T12:26:30;12.30;99.90
13074;DHT22;6603;47.066;15.396;2023-04-06T12:28:57;11.90;99.90
13074;DHT22;6603;47.066;15.396;2023-04-06T12:31:28;12.10;99.90
13074;DHT22;6603;47.066;15.396;2023-04-06T12:33:54;12.60;99.90
13074;DHT22;6603;47.066;15.396;2023-04-06T12:36:21;13.00;99.90
13074;DHT22;6603;47.066;15.396;2023-04-06T12:38:48;13.00;99.90
13074;DHT22;6603;47.066;15.396;2023-04-06T12:41:15;13.00;99.90
13074;DHT22;6603;47.066;15.396;2023-04-06T12:43:41;12.70;99.90
13074;DHT22;6603;47.066;15.396;2023-04-06T12:46:08;12.50;99.90
13074;DHT22;6603;47.066;15.396;2023-04-06T12:48:35;12.50;99.90
13074;DHT22;6603;47.066;15.396;2023-04-06T12:51:03;13.00;99.90
13074;DHT22;6603;47.066;15.396;2023-04-06T12:53:30;13.00;99.90
13074;DHT22;6603;47.066;15.396;2023-04-06T12:55:57;12.80;99.90
13074;DHT22;6603;47.066;15.396;2023-04-06T12:58:23;12.70;99.90
13074;DHT22;6603;47.066;15.396;2023-04-06T13:00:58;12.60;99.90
13074;DHT22;6603;47.066;15.396;2023-04-06T13:03:28;12.70;99.90
13074;DHT22;6603;47.066;15.396;2023-04-06T13:05:55;12.30;99.90
13074;DHT22;6603;47.066;15.396;2023-04-06T13:08:21;12.40;99.90
13074;DHT22;6603;47.066;15.396;2023-04-06T13:10:48;12.70;99.90
13074;DHT22;6603;47.066;15.396;2023-04-06T13:13:15;13.10;99.90
13074;DHT22;6603;47.066;15.396;2023-04-06T13:15:41;13.10;99.90
13074;DHT22;6603;47.066;15.396;2023-04-06T13:18:07;13.40;99.90
13074;DHT22;6603;47.066;15.396;2023-04-06T13:20:33;13.20;99.90
13074;DHT22;6603;47.066;15.396;2023-04-06T13:23:00;13.00;99.90
13074;DHT22;6603;47.066;15.396;2023-04-06T13:25:26;12.90;99.90
13074;DHT22;6603;47.066;15.396;2023-04-06T13:27:52;12.80;99.90
13074;DHT22;6603;47.066;15.396;2023-04-06T13:30:18;12.80;99.90
13074;DHT22;6603;47.066;15.396;2023-04-06T13:32:44;13.20;99.90
13074;DHT22;6603;47.066;15.396;2023-04-06T13:35:10;13.00;99.90
13074;DHT22;6603;47.066;15.396;2023-04-06T13:37:38;13.10;99.90
13074;DHT22;6603;47.066;15.396;2023-04-06T13:40:05;12.80;99.90
13074;DHT22;6603;47.066;15.396;2023-04-06T13:42:31;12.80;99.90
13074;DHT22;6603;47.066;15.396;2023-04-06T13:44:59;13.00;99.90
13074;DHT22;6603;47.066;15.396;2023-04-06T13:47:25;13.20;99.90
13074;DHT22;6603;47.066;15.396;2023-04-06T13:49:51;13.20;99.90
13074;DHT22;6603;47.066;15.396;2023-04-06T13:52:18;13.10;99.90
13074;DHT22;6603;47.066;15.396;2023-04-06T13:54:45;12.80;99.90
13074;DHT22;6603;47.066;15.396;2023-04-06T13:57:12;13.00;99.90
13074;DHT22;6603;47.066;15.396;2023-04-06T13:59:38;13.10;99.90
13074;DHT22;6603;47.066;15.396;2023-04-06T14:02:08;13.50;99.90
13074;DHT22;6603;47.066;15.396;2023-04-06T14:04:34;13.60;99.90
13074;DHT22;6603;47.066;15.396;2023-04-06T14:07:01;13.50;99.90
13074;DHT22;6603;47.066;15.396;2023-04-06T14:09:29;13.50;99.90
13074;DHT22;6603;47.066;15.396;2023-04-06T14:11:55;13.30;99.90
13074;DHT22;6603;47.066;15.396;2023-04-06T14:14:22;13.20;99.90
13074;DHT22;6603;47.066;15.396;2023-04-06T14:16:49;13.30;99.90
13074;DHT22;6603;47.066;15.396;2023-04-06T14:19:16;13.50;99.90
13074;DHT22;6603;47.066;15.396;2023-04-06T14:21:47;13.40;99.90
13074;DHT22;6603;47.066;15.396;2023-04-06T14:24:14;13.20;99.90
13074;DHT22;6603;47.066;15.396;2023-04-06T14:26:41;13.30;99.90
13074;DHT22;6603;47.066;15.396;2023-04-06T14:29:07;13.30;99.90
13074;DHT22;6603;47.066;15.396;2023-04-06T14:31:33;13.30;99.90
13074;DHT22;6603;47.066;15.396;2023-04-06T14:34:01;13.20;99.90
13074;DHT22;6603;47.066;15.396;2023-04-06T14:36:28;13.30;99.90
13074;DHT22;6603;47.066;15.396;2023-04-06T14:38:57;13.20;99.90
13074;DHT22;6603;47.066;15.396;2023-04-06T14:41:23;13.20;99.90
13074;DHT22;6603;47.066;15.396;2023-04-06T14:43:51;13.10;99.90
13074;DHT22;6603;47.066;15.396;2023-04-06T14:46:18;12.90;99.90
13074;DHT22;6603;47.066;15.396;2023-04-06T14:48:44;12.60;99.90
13074;DHT22;6603;47.066;15.396;2023-04-06T14:51:11;12.80;99.90
13074;DHT22;6603;47.066;15.396;2023-04-06T14:53:37;12.90;99.90
13074;DHT22;6603;47.066;15.396;2023-04-06T14:56:04;13.00;99.90
13074;DHT22;6603;47.066;15.396;2023-04-06T14:58:30;13.10;99.90
13074;DHT22;6603;47.066;15.396;2023-04-06T15:01:00;12.70;99.90
13074;DHT22;6603;47.066;15.396;2023-04-06T15:03:27;12.60;99.90
13074;DHT22;6603;47.066;15.396;2023-04-06T15:05:54;12.60;99.90
13074;DHT22;6603;47.066;15.396;2023-04-06T15:08:24;12.60;99.90
13074;DHT22;6603;47.066;15.396;2023-04-06T15:10:51;12.90;99.90
13074;DHT22;6603;47.066;15.396;2023-04-06T15:13:18;13.00;99.90
13074;DHT22;6603;47.066;15.396;2023-04-06T15:15:44;13.10;99.90
13074;DHT22;6603;47.066;15.396;2023-04-06T15:18:11;13.00;99.90
13074;DHT22;6603;47.066;15.396;2023-04-06T15:20:37;13.00;99.90
13074;DHT22;6603;47.066;15.396;2023-04-06T15:23:04;12.90;99.90
13074;DHT22;6603;47.066;15.396;2023-04-06T15:25:30;13.20;99.90
13074;DHT22;6603;47.066;15.396;2023-04-06T15:27:56;13.00;99.90
13074;DHT22;6603;47.066;15.396;2023-04-06T15:30:22;13.00;99.90
13074;DHT22;6603;47.066;15.396;2023-04-06T15:32:59;12.70;99.90
13074;DHT22;6603;47.066;15.396;2023-04-06T15:35:29;13.00;99.90
13074;DHT22;6603;47.066;15.396;2023-04-06T15:37:56;13.00;99.90
13074;DHT22;6603;47.066;15.396;2023-04-06T15:40:23;13.00;99.90
13074;DHT22;6603;47.066;15.396;2023-04-06T15:42:50;13.20;99.90
13074;DHT22;6603;47.066;15.396;2023-04-06T15:45:16;13.10;99.90
13074;DHT22;6603;47.066;15.396;2023-04-06T15:47:44;13.30;99.90
13074;DHT22;6603;47.066;15.396;2023-04-06T15:50:11;12.80;99.90
13074;DHT22;6603;47.066;15.396;2023-04-06T15:52:38;12.50;99.90
13074;DHT22;6603;47.066;15.396;2023-04-06T15:55:06;12.50;99.90
13074;DHT22;6603;47.066;15.396;2023-04-06T15:57:33;12.40;99.90
13074;DHT22;6603;47.066;15.396;2023-04-06T16:00:01;12.20;99.90
13074;DHT22;6603;47.066;15.396;2023-04-06T16:02:27;12.00;99.90
13074;DHT22;6603;47.066;15.396;2023-04-06T16:04:55;12.00;99.90
13074;DHT22;6603;47.066;15.396;2023-04-06T16:07:22;11.90;99.90
13074;DHT22;6603;47.066;15.396;2023-04-06T16:09:49;12.00;99.90
13074;DHT22;6603;47.066;15.396;2023-04-06T16:12:17;11.80;99.90
13074;DHT22;6603;47.066;15.396;2023-04-06T16:14:44;11.60;99.90
13074;DHT22;6603;47.066;15.396;2023-04-06T16:17:12;11.60;99.90
13074;DHT22;6603;47.066;15.396;2023-04-06T16:19:38;11.40;99.90
13074;DHT22;6603;47.066;15.396;2023-04-06T16:22:05;11.40;99.90
13074;DHT22;6603;47.066;15.396;2023-04-06T16:24:31;11.20;99.90
13074;DHT22;6603;47.066;15.396;2023-04-06T16:26:57;11.20;99.90
13074;DHT22;6603;47.066;15.396;2023-04-06T16:29:26;11.10;99.90
13074;DHT22;6603;47.066;15.396;2023-04-06T16:31:53;11.00;99.90
13074;DHT22;6603;47.066;15.396;2023-04-06T16:34:19;10.90;99.90
13074;DHT22;6603;47.066;15.396;2023-04-06T16:36:45;10.80;99.90
13074;DHT22;6603;47.066;15.396;2023-04-06T16:39:11;10.70;99.90
13074;DHT22;6603;47.066;15.396;2023-04-06T16:41:38;10.60;99.90
13074;DHT22;6603;47.066;15.396;2023-04-06T16:44:04;10.40;99.90